sensor_id;sensor_type;location;lat;lon;timestamp;temperature;humidity
4530;DHT22;2277;51.626;7.516;2023-10-13T00:02:03;18.90;99.90
4530;DHT22;2277;51.626;7.516;2023-10-13T00:04:31;18.90;99.90
4530;DHT22;2277;51.626;7.516;2023-10-13T00:07:01;19.00;99.90
4530;DHT22;2277;51.626;7.516;2023-10-13T00:09:28;18.90;99.90
4530;DHT22;2277;51.626;7.516;2023-10-13T00:12:01;19.00;99.90
4530;DHT22;2277;51.626;7.516;2023-10-13T00:14:27;18.90;99.90
4530;DHT22;2277;51.626;7.516;2023-10-13T00:17:05;19.00;99.90
4530;DHT22;2277;51.626;7.516;2023-10-13T00:19:41;19.00;99.90
4530;DHT22;2277;51.626;7.516;2023-10-13T00:22:15;19.00;99.90
4530;DHT22;2277;51.626;7.516;2023-10-13T00:24:45;19.00;99.90
4530;DHT22;2277;51.626;7.516;2023-10-13T00:27:21;19.00;99.90
4530;DHT22;2277;51.626;7.516;2023-10-13T00:30:01;19.00;99.90
4530;DHT22;2277;51.626;7.516;2023-10-13T00:32:46;18.90;99.90
4530;DHT22;2277;51.626;7.516;2023-10-13T00:35:15;18.80;99.90
4530;DHT22;2277;51.626;7.516;2023-10-13T00:37:53;18.90;99.90
4530;DHT22;2277;51.626;7.516;2023-10-13T00:40:23;18.90;99.90
4530;DHT22;2277;51.626;7.516;2023-10-13T00:43:01;18.90;99.90
4530;DHT22;2277;51.626;7.516;2023-10-13T00:45:49;18.90;99.90
4530;DHT22;2277;51.626;7.516;2023-10-13T00:48:27;18.90;99.90
4530;DHT22;2277;51.626;7.516;2023-10-13T00:51:06;19.00;99.90
4530;DHT22;2277;51.626;7.516;2023-10-13T00:53:34;19.00;99.90
4530;DHT22;2277;51.626;7.516;2023-10-13T00:56:03;18.90;99.90
4530;DHT22;2277;51.626;7.516;2023-10-13T00:58:36;19.00;99.90
4530;DHT22;2277;51.626;7.516;2023-10-13T01:01:04;18.90;99.90
4530;DHT22;2277;51.626;7.516;2023-10-13T01:03:48;19.00;99.90
4530;DHT22;2277;51.626;7.516;2023-10-13T01:06:18;19.00;99.90
4530;DHT22;2277;51.626;7.516;2023-10-13T01:08:47;18.90;99.90
4530;DHT22;2277;51.626;7.516;2023-10-13T01:11:19;18.90;99.90
4530;DHT22;2277;51.626;7.516;2023-10-13T01:13:49;18.90;99.90
4530;DHT22;2277;51.626;7.516;2023-10-13T01:16:17;18.80;99.90
4530;DHT22;2277;51.626;7.516;2023-10-13T01:18:43;18.90;99.90
4530;DHT22;2277;51.626;7.516;2023-10-13T01:21:15;18.90;99.90
4530;DHT22;2277;51.626;7.516;2023-10-13T01:23:45;18.90;99.90
4530;DHT22;2277;51.626;7.516;2023-10-13T01:26:13;19.00;99.90
4530;DHT22;2277;51.626;7.516;2023-10-13T01:28:43;18.90;99.90
4530;DHT22;2277;51.626;7.516;2023-10-13T01:31:12;18.90;99.90
4530;DHT22;2277;51.626;7.516;2023-10-13T01:33:41;19.00;99.90
4530;DHT22;2277;51.626;7.516;2023-10-13T01:36:07;19.00;99.90
4530;DHT22;2277;51.626;7.516;2023-10-13T01:38:33;18.90;99.90
4530;DHT22;2277;51.626;7.516;2023-10-13T01:40:59;18.90;99.90
4530;DHT22;2277;51.626;7.516;2023-10-13T01:43:24;19.00;99.90
4530;DHT22;2277;51.626;7.516;2023-10-13T01:45:50;19.00;99.90
4530;DHT22;2277;51.626;7.516;2023-10-13T01:48:16;18.90;99.90
4530;DHT22;2277;51.626;7.516;2023-10-13T01:50:45;19.00;99.90
4530;DHT22;2277;51.626;7.516;2023-10-13T01:53:21;19.00;99.90
4530;DHT22;2277;51.626;7.516;2023-10-13T01:55:48;19.00;99.90
4530;DHT22;2277;51.626;7.516;2023-10-13T01:58:16;19.00;99.90
4530;DHT22;2277;51.626;7.516;2023-10-13T02:00:45;19.00;99.90
4530;DHT22;2277;51.626;7.516;2023-10-13T02:03:13;19.00;99.90
4530;DHT22;2277;51.626;7.516;2023-10-13T02:05:43;19.00;99.90
4530;DHT22;2277;51.626;7.516;2023-10-13T02:08:24;19.00;99.90
4530;DHT22;2277;51.626;7.516;2023-10-13T02:10:51;19.10;99.90
4530;DHT22;2277;51.626;7.516;2023-10-13T02:13:17;19.10;99.90
4530;DHT22;2277;51.626;7.516;2023-10-13T02:15:47;19.10;99.90
4530;DHT22;2277;51.626;7.516;2023-10-13T02:18:18;19.10;99.90
4530;DHT22;2277;51.626;7.516;2023-10-13T02:20:46;19.00;99.90
4530;DHT22;2277;51.626;7.516;2023-10-13T02:23:20;19.00;99.90
4530;DHT22;2277;51.626;7.516;2023-10-13T02:25:45;19.10;99.90
4530;DHT22;2277;51.626;7.516;2023-10-13T02:28:11;19.10;99.90
4530;DHT22;2277;51.626;7.516;2023-10-13T02:30:42;19.10;99.90
4530;DHT22;2277;51.626;7.516;2023-10-13T02:33:14;19.10;99.90
4530;DHT22;2277;51.626;7.516;2023-10-13T02:35:40;19.20;99.90
4530;DHT22;2277;51.626;7.516;2023-10-13T02:38:25;19.20;99.90
4530;DHT22;2277;51.626;7.516;2023-10-13T02:40:59;19.10;99.90
4530;DHT22;2277;51.626;7.516;2023-10-13T02:43:37;19.10;99.90
4530;DHT22;2277;51.626;7.516;2023-10-13T02:46:03;19.10;99.90
4530;DHT22;2277;51.626;7.516;2023-10-13T02:48:29;19.10;99.90
4530;DHT22;2277;51.626;7.516;2023-10-13T02:51:11;19.20;99.90
4530;DHT22;2277;51.626;7.516;2023-10-13T02:53:47;19.10;99.90
4530;DHT22;2277;51.626;7.516;2023-10-13T02:56:14;19.00;99.90
4530;DHT22;2277;51.626;7.516;2023-10-13T02:58:41;19.10;99.90
4530;DHT22;2277;51.626;7.516;2023-10-13T03:01:11;19.20;99.90
4530;DHT22;2277;51.626;7.516;2023-10-13T03:03:54;19.20;99.90
4530;DHT22;2277;51.626;7.516;2023-10-13T03:06:21;19.20;99.90
4530;DHT22;2277;51.626;7.516;2023-10-13T03:09:19;19.10;99.90
4530;DHT22;2277;51.626;7.516;2023-10-13T03:11:50;19.20;99.90
4530;DHT22;2277;51.626;7.516;2023-10-13T03:14:16;19.20;99.90
4530;DHT22;2277;51.626;7.516;2023-10-13T03:17:00;19.10;99.90
4530;DHT22;2277;51.626;7.516;2023-10-13T03:19:34;19.10;99.90
4530;DHT22;2277;51.626;7.516;2023-10-13T03:22:05;19.20;99.90
4530;DHT22;2277;51.626;7.516;2023-10-13T03:24:42;19.10;99.90
4530;DHT22;2277;51.626;7.516;2023-10-13T03:27:16;19.20;99.90
4530;DHT22;2277;51.626;7.516;2023-10-13T03:29:43;19.10;99.90
4530;DHT22;2277;51.626;7.516;2023-10-13T03:32:16;19.00;99.90
4530;DHT22;2277;51.626;7.516;2023-10-13T03:34:42;19.10;99.90
4530;DHT22;2277;51.626;7.516;2023-10-13T03:37:18;19.10;99.90
4530;DHT22;2277;51.626;7.516;2023-10-13T03:40:04;19.10;99.90
4530;DHT22;2277;51.626;7.516;2023-10-13T03:43:00;19.10;99.90
4530;DHT22;2277;51.626;7.516;2023-10-13T03:45:39;19.10;99.90
4530;DHT22;2277;51.626;7.516;2023-10-13T03:48:11;19.00;99.90
4530;DHT22;2277;51.626;7.516;2023-10-13T03:50:58;19.10;99.90
4530;DHT22;2277;51.626;7.516;2023-10-13T03:53:38;19.10;99.90
4530;DHT22;2277;51.626;7.516;2023-10-13T03:56:23;19.00;99.90
4530;DHT22;2277;51.626;7.516;2023-10-13T03:58:54;19.00;99.90
4530;DHT22;2277;51.626;7.516;2023-10-13T04:01:20;19.00;99.90
4530;DHT22;2277;51.626;7.516;2023-10-13T04:03:57;19.10;99.90
4530;DHT22;2277;51.626;7.516;2023-10-13T04:06:32;19.00;99.90
4530;DHT22;2277;51.626;7.516;2023-10-13T04:09:13;18.90;99.90
4530;DHT22;2277;51.626;7.516;2023-10-13T04:11:57;19.00;99.90
4530;DHT22;2277;51.626;7.516;2023-10-13T04:14:30;18.90;99.90
4530;DHT22;2277;51.626;7.516;2023-10-13T04:17:14;18.80;99.90
4530;DHT22;2277;51.626;7.516;2023-10-13T04:19:43;18.90;99.90
4530;DHT22;2277;51.626;7.516;2023-10-13T04:22:27;18.90;99.90
4530;DHT22;2277;51.626;7.516;2023-10-13T04:25:22;18.90;99.90
4530;DHT22;2277;51.626;7.516;2023-10-13T04:28:07;18.80;99.90
4530;DHT22;2277;51.626;7.516;2023-10-13T04:30:53;18.90;99.90
4530;DHT22;2277;51.626;7.516;2023-10-13T04:33:22;18.80;99.90
4530;DHT22;2277;51.626;7.516;2023-10-13T04:36:07;18.70;99.90
4530;DHT22;2277;51.626;7.516;2023-10-13T04:38:46;18.70;99.90
4530;DHT22;2277;51.626;7.516;2023-10-13T04:44:07;18.70;99.90
4530;DHT22;2277;51.626;7.516;2023-10-13T04:46:49;18.70;99.90
4530;DHT22;2277;51.626;7.516;2023-10-13T04:49:14;18.70;99.90
4530;DHT22;2277;51.626;7.516;2023-10-13T04:51:57;18.80;99.90
4530;DHT22;2277;51.626;7.516;2023-10-13T04:54:44;18.80;99.90
4530;DHT22;2277;51.626;7.516;2023-10-13T04:57:15;18.80;99.90
4530;DHT22;2277;51.626;7.516;2023-10-13T05:00:03;18.90;99.90
4530;DHT22;2277;51.626;7.516;2023-10-13T05:02:30;18.80;99.90
4530;DHT22;2277;51.626;7.516;2023-10-13T05:07:55;18.80;99.90
4530;DHT22;2277;51.626;7.516;2023-10-13T05:10:39;18.80;99.90
4530;DHT22;2277;51.626;7.516;2023-10-13T05:13:23;18.80;99.90
4530;DHT22;2277;51.626;7.516;2023-10-13T05:16:07;18.90;99.90
4530;DHT22;2277;51.626;7.516;2023-10-13T05:18:51;18.80;99.90
4530;DHT22;2277;51.626;7.516;2023-10-13T05:21:35;18.80;99.90
4530;DHT22;2277;51.626;7.516;2023-10-13T05:24:19;18.70;99.90
4530;DHT22;2277;51.626;7.516;2023-10-13T05:27:03;18.80;99.90
4530;DHT22;2277;51.626;7.516;2023-10-13T05:29:48;18.80;99.90
4530;DHT22;2277;51.626;7.516;2023-10-13T05:32:32;18.90;99.90
4530;DHT22;2277;51.626;7.516;2023-10-13T05:35:19;18.90;99.90
4530;DHT22;2277;51.626;7.516;2023-10-13T05:38:03;18.90;99.90
4530;DHT22;2277;51.626;7.516;2023-10-13T05:40:58;18.90;99.90
4530;DHT22;2277;51.626;7.516;2023-10-13T05:43:43;18.80;99.90
4530;DHT22;2277;51.626;7.516;2023-10-13T05:46:27;18.80;99.90
4530;DHT22;2277;51.626;7.516;2023-10-13T05:48:54;18.80;99.90
4530;DHT22;2277;51.626;7.516;2023-10-13T05:51:29;18.70;99.90
4530;DHT22;2277;51.626;7.516;2023-10-13T05:54:02;18.90;99.90
4530;DHT22;2277;51.626;7.516;2023-10-13T05:56:40;18.80;99.90
4530;DHT22;2277;51.626;7.516;2023-10-13T05:59:24;18.80;99.90
4530;DHT22;2277;51.626;7.516;2023-10-13T06:02:08;18.80;99.90
4530;DHT22;2277;51.626;7.516;2023-10-13T06:04:52;18.80;99.90
4530;DHT22;2277;51.626;7.516;2023-10-13T06:07:36;18.80;99.90
4530;DHT22;2277;51.626;7.516;2023-10-13T06:10:20;18.90;99.90
4530;DHT22;2277;51.626;7.516;2023-10-13T06:13:04;18.80;99.90
4530;DHT22;2277;51.626;7.516;2023-10-13T06:15:48;18.80;99.90
4530;DHT22;2277;51.626;7.516;2023-10-13T06:18:32;18.80;99.90
4530;DHT22;2277;51.626;7.516;2023-10-13T06:21:16;18.80;99.90
4530;DHT22;2277;51.626;7.516;2023-10-13T06:24:00;18.80;99.90
4530;DHT22;2277;51.626;7.516;2023-10-13T06:26:47;18.80;99.90
4530;DHT22;2277;51.626;7.516;2023-10-13T06:29:32;18.80;99.90
4530;DHT22;2277;51.626;7.516;2023-10-13T06:31:58;18.80;99.90
4530;DHT22;2277;51.626;7.516;2023-10-13T06:34:27;18.80;99.90
4530;DHT22;2277;51.626;7.516;2023-10-13T06:37:04;18.80;99.90
4530;DHT22;2277;51.626;7.516;2023-10-13T06:39:50;18.80;99.90
4530;DHT22;2277;51.626;7.516;2023-10-13T06:42:16;18.80;99.90
4530;DHT22;2277;51.626;7.516;2023-10-13T06:44:44;18.80;99.90
4530;DHT22;2277;51.626;7.516;2023-10-13T06:47:14;18.70;99.90
4530;DHT22;2277;51.626;7.516;2023-10-13T06:49:40;18.70;99.90
4530;DHT22;2277;51.626;7.516;2023-10-13T06:52:09;18.70;99.90
4530;DHT22;2277;51.626;7.516;2023-10-13T06:54:36;18.80;99.90
4530;DHT22;2277;51.626;7.516;2023-10-13T06:57:05;18.80;99.90
4530;DHT22;2277;51.626;7.516;2023-10-13T06:59:33;18.90;99.90
4530;DHT22;2277;51.626;7.516;2023-10-13T07:02:06;18.90;99.90
4530;DHT22;2277;51.626;7.516;2023-10-13T07:04:34;18.90;99.90
4530;DHT22;2277;51.626;7.516;2023-10-13T07:06:59;18.90;99.90
4530;DHT22;2277;51.626;7.516;2023-10-13T07:09:27;19.00;99.90
4530;DHT22;2277;51.626;7.516;2023-10-13T07:12:05;19.00;99.90
4530;DHT22;2277;51.626;7.516;2023-10-13T07:14:51;19.00;99.90
4530;DHT22;2277;51.626;7.516;2023-10-13T07:17:39;19.10;99.90
4530;DHT22;2277;51.626;7.516;2023-10-13T07:20:07;19.20;99.90
4530;DHT22;2277;51.626;7.516;2023-10-13T07:22:51;19.20;99.90
4530;DHT22;2277;51.626;7.516;2023-10-13T07:25:34;19.30;99.90
4530;DHT22;2277;51.626;7.516;2023-10-13T07:28:06;19.30;99.90
4530;DHT22;2277;51.626;7.516;2023-10-13T07:30:36;19.30;99.90
4530;DHT22;2277;51.626;7.516;2023-10-13T07:33:17;19.30;99.90
4530;DHT22;2277;51.626;7.516;2023-10-13T07:35:58;19.40;99.90
4530;DHT22;2277;51.626;7.516;2023-10-13T07:38:25;19.50;99.90
4530;DHT22;2277;51.626;7.516;2023-10-13T07:40:56;19.50;99.90
4530;DHT22;2277;51.626;7.516;2023-10-13T07:43:25;19.50;99.90
4530;DHT22;2277;51.626;7.516;2023-10-13T07:45:53;19.50;99.90
4530;DHT22;2277;51.626;7.516;2023-10-13T07:48:24;19.60;99.90
4530;DHT22;2277;51.626;7.516;2023-10-13T07:51:05;19.60;99.90
4530;DHT22;2277;51.626;7.516;2023-10-13T07:53:35;19.60;99.90
4530;DHT22;2277;51.626;7.516;2023-10-13T07:56:01;19.60;99.90
4530;DHT22;2277;51.626;7.516;2023-10-13T07:58:39;19.70;99.90
4530;DHT22;2277;51.626;7.516;2023-10-13T08:01:23;19.70;99.90
4530;DHT22;2277;51.626;7.516;2023-10-13T08:03:50;19.70;99.90
4530;DHT22;2277;51.626;7.516;2023-10-13T08:06:30;19.80;99.90
4530;DHT22;2277;51.626;7.516;2023-10-13T08:08:56;19.90;99.90
4530;DHT22;2277;51.626;7.516;2023-10-13T08:11:36;20.00;99.90
4530;DHT22;2277;51.626;7.516;2023-10-13T08:14:03;20.10;99.90
4530;DHT22;2277;51.626;7.516;2023-10-13T08:16:48;20.10;99.90
4530;DHT22;2277;51.626;7.516;2023-10-13T08:19:14;20.10;99.90
4530;DHT22;2277;51.626;7.516;2023-10-13T08:21:42;20.20;99.90
4530;DHT22;2277;51.626;7.516;2023-10-13T08:24:16;20.40;99.90
4530;DHT22;2277;51.626;7.516;2023-10-13T08:26:42;20.30;99.90
4530;DHT22;2277;51.626;7.516;2023-10-13T08:29:41;20.40;99.90
4530;DHT22;2277;51.626;7.516;2023-10-13T08:32:26;20.50;99.90
4530;DHT22;2277;51.626;7.516;2023-10-13T08:34:58;20.70;99.90
4530;DHT22;2277;51.626;7.516;2023-10-13T08:37:24;20.80;99.90
4530;DHT22;2277;51.626;7.516;2023-10-13T08:39:54;21.00;99.90
4530;DHT22;2277;51.626;7.516;2023-10-13T08:42:32;21.30;99.90
4530;DHT22;2277;51.626;7.516;2023-10-13T08:47:53;21.50;99.90
4530;DHT22;2277;51.626;7.516;2023-10-13T08:50:22;21.70;99.90
4530;DHT22;2277;51.626;7.516;2023-10-13T08:53:14;22.00;99.90
4530;DHT22;2277;51.626;7.516;2023-10-13T08:56:00;22.30;99.90
4530;DHT22;2277;51.626;7.516;2023-10-13T08:58:26;22.30;99.90
4530;DHT22;2277;51.626;7.516;2023-10-13T09:01:12;22.40;99.90
4530;DHT22;2277;51.626;7.516;2023-10-13T09:03:39;22.70;99.90
4530;DHT22;2277;51.626;7.516;2023-10-13T09:06:10;22.80;99.90
4530;DHT22;2277;51.626;7.516;2023-10-13T09:08:40;23.00;99.90
4530;DHT22;2277;51.626;7.516;2023-10-13T09:11:44;23.10;99.90
4530;DHT22;2277;51.626;7.516;2023-10-13T09:14:18;23.10;99.90
4530;DHT22;2277;51.626;7.516;2023-10-13T09:17:02;23.30;99.90
4530;DHT22;2277;51.626;7.516;2023-10-13T09:19:47;23.40;99.90
4530;DHT22;2277;51.626;7.516;2023-10-13T09:22:24;23.40;99.90
4530;DHT22;2277;51.626;7.516;2023-10-13T09:25:02;23.50;99.90
4530;DHT22;2277;51.626;7.516;2023-10-13T09:27:31;23.60;99.90
4530;DHT22;2277;51.626;7.516;2023-10-13T09:30:04;23.70;99.90
4530;DHT22;2277;51.626;7.516;2023-10-13T09:32:35;23.70;99.90
4530;DHT22;2277;51.626;7.516;2023-10-13T09:35:19;23.80;99.90
4530;DHT22;2277;51.626;7.516;2023-10-13T09:37:49;24.00;99.90
4530;DHT22;2277;51.626;7.516;2023-10-13T09:40:16;24.00;99.90
4530;DHT22;2277;51.626;7.516;2023-10-13T09:43:12;24.20;99.90
4530;DHT22;2277;51.626;7.516;2023-10-13T09:45:41;24.20;99.90
4530;DHT22;2277;51.626;7.516;2023-10-13T09:48:24;24.50;99.90
4530;DHT22;2277;51.626;7.516;2023-10-13T09:50:56;24.50;99.90
4530;DHT22;2277;51.626;7.516;2023-10-13T09:53:24;24.70;99.90
4530;DHT22;2277;51.626;7.516;2023-10-13T09:55:55;24.70;99.90
4530;DHT22;2277;51.626;7.516;2023-10-13T09:58:27;24.80;99.90
4530;DHT22;2277;51.626;7.516;2023-10-13T10:01:02;25.10;99.90
4530;DHT22;2277;51.626;7.516;2023-10-13T10:03:46;25.20;99.90
4530;DHT22;2277;51.626;7.516;2023-10-13T10:06:30;25.30;99.90
4530;DHT22;2277;51.626;7.516;2023-10-13T10:09:05;25.60;99.90
4530;DHT22;2277;51.626;7.516;2023-10-13T10:15:12;25.70;99.90
4530;DHT22;2277;51.626;7.516;2023-10-13T10:17:54;25.80;99.90
4530;DHT22;2277;51.626;7.516;2023-10-13T10:20:31;26.00;99.90
4530;DHT22;2277;51.626;7.516;2023-10-13T10:23:22;26.10;99.90
4530;DHT22;2277;51.626;7.516;2023-10-13T10:25:48;26.10;99.90
4530;DHT22;2277;51.626;7.516;2023-10-13T10:28:17;26.10;99.90
4530;DHT22;2277;51.626;7.516;2023-10-13T10:30:43;26.20;99.90
4530;DHT22;2277;51.626;7.516;2023-10-13T10:33:10;26.20;99.90
4530;DHT22;2277;51.626;7.516;2023-10-13T10:35:42;26.20;99.90
4530;DHT22;2277;51.626;7.516;2023-10-13T10:38:08;26.20;99.90
4530;DHT22;2277;51.626;7.516;2023-10-13T10:40:51;26.40;99.90
4530;DHT22;2277;51.626;7.516;2023-10-13T10:43:37;26.30;99.90
4530;DHT22;2277;51.626;7.516;2023-10-13T10:46:15;26.20;99.90
4530;DHT22;2277;51.626;7.516;2023-10-13T10:48:41;26.20;99.90
4530;DHT22;2277;51.626;7.516;2023-10-13T10:51:14;26.20;99.90
4530;DHT22;2277;51.626;7.516;2023-10-13T10:53:47;26.20;99.90
4530;DHT22;2277;51.626;7.516;2023-10-13T10:56:15;26.20;99.90
4530;DHT22;2277;51.626;7.516;2023-10-13T10:59:10;26.10;99.90
4530;DHT22;2277;51.626;7.516;2023-10-13T11:01:46;26.00;99.90
4530;DHT22;2277;51.626;7.516;2023-10-13T11:04:18;25.90;99.90
4530;DHT22;2277;51.626;7.516;2023-10-13T11:06:50;25.80;99.90
4530;DHT22;2277;51.626;7.516;2023-10-13T11:09:28;25.70;99.90
4530;DHT22;2277;51.626;7.516;2023-10-13T11:12:17;25.70;99.90
4530;DHT22;2277;51.626;7.516;2023-10-13T11:15:08;25.60;99.90
4530;DHT22;2277;51.626;7.516;2023-10-13T11:17:58;25.50;99.90
4530;DHT22;2277;51.626;7.516;2023-10-13T11:20:24;25.60;99.90
4530;DHT22;2277;51.626;7.516;2023-10-13T11:23:00;25.60;99.90
4530;DHT22;2277;51.626;7.516;2023-10-13T11:25:30;25.70;99.90
4530;DHT22;2277;51.626;7.516;2023-10-13T11:28:10;25.90;99.90
4530;DHT22;2277;51.626;7.516;2023-10-13T11:30:46;25.80;99.90
4530;DHT22;2277;51.626;7.516;2023-10-13T11:33:18;25.80;99.90
4530;DHT22;2277;51.626;7.516;2023-10-13T11:35:48;25.80;99.90
4530;DHT22;2277;51.626;7.516;2023-10-13T11:38:15;25.80;99.90
4530;DHT22;2277;51.626;7.516;2023-10-13T11:40:50;25.70;99.90
4530;DHT22;2277;51.626;7.516;2023-10-13T11:43:39;25.80;99.90
4530;DHT22;2277;51.626;7.516;2023-10-13T11:46:08;25.70;99.90
4530;DHT22;2277;51.626;7.516;2023-10-13T11:48:34;25.70;99.90
4530;DHT22;2277;51.626;7.516;2023-10-13T11:51:02;25.90;99.90
4530;DHT22;2277;51.626;7.516;2023-10-13T11:53:37;26.10;99.90
4530;DHT22;2277;51.626;7.516;2023-10-13T11:56:08;26.20;99.90
4530;DHT22;2277;51.626;7.516;2023-10-13T11:58:39;26.50;99.90
4530;DHT22;2277;51.626;7.516;2023-10-13T12:01:05;26.70;99.90
4530;DHT22;2277;51.626;7.516;2023-10-13T12:03:36;26.90;99.90
4530;DHT22;2277;51.626;7.516;2023-10-13T12:06:21;27.10;99.90
4530;DHT22;2277;51.626;7.516;2023-10-13T12:11:47;27.40;99.90
4530;DHT22;2277;51.626;7.516;2023-10-13T12:14:15;27.50;99.90
4530;DHT22;2277;51.626;7.516;2023-10-13T12:16:55;27.50;99.90
4530;DHT22;2277;51.626;7.516;2023-10-13T12:19:22;27.60;99.90
4530;DHT22;2277;51.626;7.516;2023-10-13T12:21:58;27.60;99.90
4530;DHT22;2277;51.626;7.516;2023-10-13T12:24:33;27.80;99.90
4530;DHT22;2277;51.626;7.516;2023-10-13T12:27:07;27.80;99.90
4530;DHT22;2277;51.626;7.516;2023-10-13T12:29:50;27.90;99.90
4530;DHT22;2277;51.626;7.516;2023-10-13T12:32:17;27.90;99.90
4530;DHT22;2277;51.626;7.516;2023-10-13T12:34:48;28.10;99.90
4530;DHT22;2277;51.626;7.516;2023-10-13T12:37:27;28.30;99.90
4530;DHT22;2277;51.626;7.516;2023-10-13T12:40:04;28.30;99.90
4530;DHT22;2277;51.626;7.516;2023-10-13T12:42:49;28.40;99.90
4530;DHT22;2277;51.626;7.516;2023-10-13T12:45:33;28.60;99.90
4530;DHT22;2277;51.626;7.516;2023-10-13T12:48:21;28.70;99.90
4530;DHT22;2277;51.626;7.516;2023-10-13T12:51:05;28.70;99.90
4530;DHT22;2277;51.626;7.516;2023-10-13T12:53:50;28.80;99.90
4530;DHT22;2277;51.626;7.516;2023-10-13T12:56:17;29.00;99.90
4530;DHT22;2277;51.626;7.516;2023-10-13T12:58:43;29.10;99.90
4530;DHT22;2277;51.626;7.516;2023-10-13T13:03:49;29.10;99.90
4530;DHT22;2277;51.626;7.516;2023-10-13T13:06:22;29.00;99.90
4530;DHT22;2277;51.626;7.516;2023-10-13T13:08:54;28.80;99.90
4530;DHT22;2277;51.626;7.516;2023-10-13T13:11:20;28.70;99.90
4530;DHT22;2277;51.626;7.516;2023-10-13T13:13:47;28.50;99.90
4530;DHT22;2277;51.626;7.516;2023-10-13T13:16:17;28.30;99.90
4530;DHT22;2277;51.626;7.516;2023-10-13T13:18:49;28.20;99.90
4530;DHT22;2277;51.626;7.516;2023-10-13T13:21:15;28.00;99.90
4530;DHT22;2277;51.626;7.516;2023-10-13T13:23:47;27.90;99.90
4530;DHT22;2277;51.626;7.516;2023-10-13T13:26:12;27.90;99.90
4530;DHT22;2277;51.626;7.516;2023-10-13T13:28:47;28.00;99.90
4530;DHT22;2277;51.626;7.516;2023-10-13T13:31:22;27.90;99.90
4530;DHT22;2277;51.626;7.516;2023-10-13T13:33:55;27.80;99.90
4530;DHT22;2277;51.626;7.516;2023-10-13T13:36:20;27.80;99.90
4530;DHT22;2277;51.626;7.516;2023-10-13T13:38:47;27.80;99.90
4530;DHT22;2277;51.626;7.516;2023-10-13T13:41:17;27.60;99.90
4530;DHT22;2277;51.626;7.516;2023-10-13T13:43:48;27.50;99.90
4530;DHT22;2277;51.626;7.516;2023-10-13T13:46:21;27.60;99.90
4530;DHT22;2277;51.626;7.516;2023-10-13T13:48:54;27.70;99.90
4530;DHT22;2277;51.626;7.516;2023-10-13T13:51:32;27.70;99.90
4530;DHT22;2277;51.626;7.516;2023-10-13T13:53:59;27.80;99.90
4530;DHT22;2277;51.626;7.516;2023-10-13T13:56:25;27.80;99.90
4530;DHT22;2277;51.626;7.516;2023-10-13T13:58:54;27.60;99.90
4530;DHT22;2277;51.626;7.516;2023-10-13T14:01:21;27.50;99.90
4530;DHT22;2277;51.626;7.516;2023-10-13T14:03:48;27.40;99.90
4530;DHT22;2277;51.626;7.516;2023-10-13T14:06:20;27.30;99.90
4530;DHT22;2277;51.626;7.516;2023-10-13T14:08:53;27.30;99.90
4530;DHT22;2277;51.626;7.516;2023-10-13T14:11:24;27.20;99.90
4530;DHT22;2277;51.626;7.516;2023-10-13T14:14:10;27.10;99.90
4530;DHT22;2277;51.626;7.516;2023-10-13T14:16:54;27.00;99.90
4530;DHT22;2277;51.626;7.516;2023-10-13T14:19:28;26.80;99.90
4530;DHT22;2277;51.626;7.516;2023-10-13T14:21:58;26.80;99.90
4530;DHT22;2277;51.626;7.516;2023-10-13T14:24:26;26.70;99.90
4530;DHT22;2277;51.626;7.516;2023-10-13T14:26:59;26.70;99.90
4530;DHT22;2277;51.626;7.516;2023-10-13T14:29:33;26.90;99.90
4530;DHT22;2277;51.626;7.516;2023-10-13T14:31:59;27.10;99.90
4530;DHT22;2277;51.626;7.516;2023-10-13T14:34:24;27.10;99.90
4530;DHT22;2277;51.626;7.516;2023-10-13T14:36:52;27.10;99.90
4530;DHT22;2277;51.626;7.516;2023-10-13T14:39:19;27.10;99.90
4530;DHT22;2277;51.626;7.516;2023-10-13T14:41:46;27.00;99.90
4530;DHT22;2277;51.626;7.516;2023-10-13T14:44:16;26.90;99.90
4530;DHT22;2277;51.626;7.516;2023-10-13T14:46:41;26.80;99.90
4530;DHT22;2277;51.626;7.516;2023-10-13T14:49:07;26.70;99.90
4530;DHT22;2277;51.626;7.516;2023-10-13T14:51:33;26.60;99.90
4530;DHT22;2277;51.626;7.516;2023-10-13T14:54:04;26.50;99.90
4530;DHT22;2277;51.626;7.516;2023-10-13T14:56:30;26.40;99.90
4530;DHT22;2277;51.626;7.516;2023-10-13T14:58:56;26.40;99.90
4530;DHT22;2277;51.626;7.516;2023-10-13T15:01:23;26.20;99.90
4530;DHT22;2277;51.626;7.516;2023-10-13T15:03:51;26.20;99.90
4530;DHT22;2277;51.626;7.516;2023-10-13T15:06:24;26.20;99.90
4530;DHT22;2277;51.626;7.516;2023-10-13T15:08:52;26.10;99.90
4530;DHT22;2277;51.626;7.516;2023-10-13T15:11:22;26.00;99.90
4530;DHT22;2277;51.626;7.516;2023-10-13T15:13:52;25.90;99.90
4530;DHT22;2277;51.626;7.516;2023-10-13T15:16:20;25.90;99.90
4530;DHT22;2277;51.626;7.516;2023-10-13T15:18:47;25.80;99.90
4530;DHT22;2277;51.626;7.516;2023-10-13T15:21:22;25.70;99.90
4530;DHT22;2277;51.626;7.516;2023-10-13T15:23:49;25.70;99.90
4530;DHT22;2277;51.626;7.516;2023-10-13T15:26:20;25.50;99.90
4530;DHT22;2277;51.626;7.516;2023-10-13T15:28:49;25.50;99.90
4530;DHT22;2277;51.626;7.516;2023-10-13T15:31:18;25.50;99.90
4530;DHT22;2277;51.626;7.516;2023-10-13T15:34:13;25.50;99.90
4530;DHT22;2277;51.626;7.516;2023-10-13T15:36:43;25.30;99.90
4530;DHT22;2277;51.626;7.516;2023-10-13T15:39:12;25.20;99.90
4530;DHT22;2277;51.626;7.516;2023-10-13T15:41:41;25.20;99.90
4530;DHT22;2277;51.626;7.516;2023-10-13T15:44:13;25.10;99.90
4530;DHT22;2277;51.626;7.516;2023-10-13T15:46:39;25.10;99.90
4530;DHT22;2277;51.626;7.516;2023-10-13T15:49:05;25.10;99.90
4530;DHT22;2277;51.626;7.516;2023-10-13T15:51:34;25.00;99.90
4530;DHT22;2277;51.626;7.516;2023-10-13T15:54:05;24.90;99.90
4530;DHT22;2277;51.626;7.516;2023-10-13T15:56:50;24.90;99.90
4530;DHT22;2277;51.626;7.516;2023-10-13T15:59:20;24.90;99.90
4530;DHT22;2277;51.626;7.516;2023-10-13T16:01:48;24.90;99.90
4530;DHT22;2277;51.626;7.516;2023-10-13T16:04:14;24.90;99.90
4530;DHT22;2277;51.626;7.516;2023-10-13T16:06:41;24.80;99.90
4530;DHT22;2277;51.626;7.516;2023-10-13T16:09:07;24.90;99.90
4530;DHT22;2277;51.626;7.516;2023-10-13T16:11:49;24.90;99.90
4530;DHT22;2277;51.626;7.516;2023-10-13T16:14:15;24.90;99.90
4530;DHT22;2277;51.626;7.516;2023-10-13T16:16:42;24.90;99.90
4530;DHT22;2277;51.626;7.516;2023-10-13T16:19:18;24.90;99.90
4530;DHT22;2277;51.626;7.516;2023-10-13T16:21:47;24.80;99.90
4530;DHT22;2277;51.626;7.516;2023-10-13T16:24:13;24.70;99.90
4530;DHT22;2277;51.626;7.516;2023-10-13T16:26:46;24.80;99.90
4530;DHT22;2277;51.626;7.516;2023-10-13T16:29:15;24.70;99.90
4530;DHT22;2277;51.626;7.516;2023-10-13T16:31:41;24.70;99.90
4530;DHT22;2277;51.626;7.516;2023-10-13T16:34:17;24.60;99.90
4530;DHT22;2277;51.626;7.516;2023-10-13T16:36:47;24.50;99.90
4530;DHT22;2277;51.626;7.516;2023-10-13T16:39:14;24.50;99.90
4530;DHT22;2277;51.626;7.516;2023-10-13T16:41:44;24.50;99.90
4530;DHT22;2277;51.626;7.516;2023-10-13T16:44:12;24.50;99.90
4530;DHT22;2277;51.626;7.516;2023-10-13T16:46:39;24.50;99.90
4530;DHT22;2277;51.626;7.516;2023-10-13T16:49:05;24.50;99.90
4530;DHT22;2277;51.626;7.516;2023-10-13T16:51:33;24.50;99.90
4530;DHT22;2277;51.626;7.516;2023-10-13T16:53:58;24.40;99.90
4530;DHT22;2277;51.626;7.516;2023-10-13T16:56:24;24.40;99.90
4530;DHT22;2277;51.626;7.516;2023-10-13T16:58:50;24.40;99.90
4530;DHT22;2277;51.626;7.516;2023-10-13T17:01:20;24.40;99.90
4530;DHT22;2277;51.626;7.516;2023-10-13T17:03:47;24.30;99.90